createdAt,value
2023-04-02T00:00:18.323Z,21.54
2023-04-02T00:01:23.756Z,21.51
2023-04-02T00:02:29.208Z,21.51
2023-04-02T00:03:35.341Z,21.5
2023-04-02T00:04:41.096Z,21.51
2023-04-02T00:05:46.444Z,21.53
2023-04-02T00:06:51.820Z,21.51
2023-04-02T00:07:57.249Z,21.51
2023-04-02T00:09:02.629Z,21.52
2023-04-02T00:10:08.056Z,21.51
2023-04-02T00:11:13.441Z,21.49
2023-04-02T00:12:18.816Z,21.51
2023-04-02T00:13:24.214Z,21.5
2023-04-02T00:14:29.559Z,21.5
2023-04-02T00:15:35.101Z,21.5
2023-04-02T00:16:40.978Z,21.47
2023-04-02T00:17:46.581Z,21.47
2023-04-02T00:18:52.040Z,21.48
2023-04-02T00:19:57.394Z,21.48
2023-04-02T00:21:02.809Z,21.48
2023-04-02T00:22:08.186Z,21.48
2023-04-02T00:23:13.605Z,21.48
2023-04-02T00:24:18.954Z,21.48
2023-04-02T00:25:24.339Z,21.46
2023-04-02T00:26:29.744Z,21.43
2023-04-02T00:27:35.132Z,21.44
2023-04-02T00:28:40.528Z,21.47
2023-04-02T00:29:45.980Z,21.43
2023-04-02T00:30:51.413Z,21.44
2023-04-02T00:31:56.852Z,21.46
2023-04-02T00:33:02.336Z,21.47
2023-04-02T00:34:07.826Z,21.46
2023-04-02T00:35:13.232Z,21.44
2023-04-02T00:36:18.645Z,21.45
2023-04-02T00:37:24.249Z,21.44
2023-04-02T00:38:29.667Z,21.45
2023-04-02T00:39:35.045Z,21.46
2023-04-02T00:40:40.444Z,21.45
2023-04-02T00:41:45.856Z,21.44
2023-04-02T00:42:51.292Z,21.44
2023-04-02T00:43:56.670Z,21.43
2023-04-02T00:45:02.083Z,21.4
2023-04-02T00:46:07.528Z,21.41
2023-04-02T00:47:13.053Z,21.41
2023-04-02T00:48:18.445Z,21.42
2023-04-02T00:49:23.884Z,21.44
2023-04-02T00:50:29.248Z,21.43
2023-04-02T00:51:34.608Z,21.42
2023-04-02T00:52:40.021Z,21.38
2023-04-02T00:53:45.417Z,21.37
2023-04-02T00:54:50.820Z,21.34
2023-04-02T00:55:56.204Z,21.38
2023-04-02T00:57:01.600Z,21.38
2023-04-02T00:58:07.094Z,21.34
2023-04-02T00:59:12.455Z,21.36
2023-04-02T01:00:17.854Z,21.36
2023-04-02T01:01:23.266Z,21.39
2023-04-02T01:02:29.509Z,21.38
2023-04-02T01:03:36.088Z,21.37
2023-04-02T01:04:42.743Z,21.39
2023-04-02T01:05:48.444Z,21.36
2023-04-02T01:06:53.826Z,21.31
2023-04-02T01:07:59.272Z,21.3
2023-04-02T01:09:04.651Z,21.25
2023-04-02T01:10:10.045Z,21.27
2023-04-02T01:11:15.805Z,21.24
2023-04-02T01:12:21.182Z,21.26
2023-04-02T01:13:26.543Z,21.27
2023-04-02T01:14:31.933Z,21.26
2023-04-02T01:15:37.581Z,21.25
2023-04-02T01:16:43.359Z,21.24
2023-04-02T01:17:48.908Z,21.3
2023-04-02T01:18:54.426Z,21.34
2023-04-02T01:19:59.774Z,21.32
2023-04-02T01:21:05.224Z,21.34
2023-04-02T01:22:10.591Z,21.37
2023-04-02T01:23:15.982Z,21.4
2023-04-02T01:24:21.345Z,21.4
2023-04-02T01:25:26.714Z,21.4
2023-04-02T01:26:32.157Z,21.4
2023-04-02T01:27:37.527Z,21.36
2023-04-02T01:28:42.945Z,21.36
2023-04-02T01:29:48.342Z,21.38
2023-04-02T01:30:53.715Z,21.35
2023-04-02T01:31:59.202Z,21.35
2023-04-02T01:33:07.340Z,21.3
2023-04-02T01:34:12.883Z,21.32
2023-04-02T01:35:18.319Z,21.28
2023-04-02T01:36:23.718Z,21.31
2023-04-02T01:37:29.082Z,21.35
2023-04-02T01:38:34.421Z,21.35
2023-04-02T01:39:39.811Z,21.33
2023-04-02T01:40:45.178Z,21.33
2023-04-02T01:41:50.548Z,21.35
2023-04-02T01:42:55.922Z,21.35
2023-04-02T01:44:02.347Z,21.29
2023-04-02T01:45:10.061Z,21.27
2023-04-02T01:46:15.585Z,21.26
2023-04-02T01:47:21.058Z,21.25
2023-04-02T01:48:26.458Z,21.28
2023-04-02T01:49:31.799Z,21.28
2023-04-02T01:50:37.337Z,21.25
2023-04-02T01:51:42.874Z,21.23
2023-04-02T01:52:48.263Z,21.28
2023-04-02T01:53:53.622Z,21.3
2023-04-02T01:54:58.994Z,21.32
2023-04-02T01:56:04.392Z,21.32
2023-04-02T01:57:09.796Z,21.32
2023-04-02T01:58:15.281Z,21.31
2023-04-02T01:59:20.635Z,21.29
2023-04-02T02:00:26.032Z,21.27
2023-04-02T02:01:31.503Z,21.24
2023-04-02T02:02:37.017Z,21.27
2023-04-02T02:03:42.814Z,21.27
2023-04-02T02:04:48.217Z,21.23
2023-04-02T02:05:53.599Z,21.19
2023-04-02T02:06:58.961Z,21.23
2023-04-02T02:08:04.359Z,21.22
2023-04-02T02:09:09.715Z,21.23
2023-04-02T02:10:15.139Z,21.22
2023-04-02T02:11:20.536Z,21.19
2023-04-02T02:12:25.968Z,21.21
2023-04-02T02:13:31.348Z,21.22
2023-04-02T02:14:36.684Z,21.22
2023-04-02T02:15:42.070Z,21.22
2023-04-02T02:16:47.521Z,21.23
2023-04-02T02:17:53.080Z,21.23
2023-04-02T02:18:58.614Z,21.2
2023-04-02T02:20:04.073Z,21.24
2023-04-02T02:21:09.507Z,21.25
2023-04-02T02:22:14.915Z,21.23
2023-04-02T02:23:20.240Z,21.25
2023-04-02T02:24:25.639Z,21.24
2023-04-02T02:25:31.024Z,21.27
2023-04-02T02:26:37.411Z,21.24
2023-04-02T02:27:42.796Z,21.24
2023-04-02T02:28:48.154Z,21.21
2023-04-02T02:29:54.180Z,21.17
2023-04-02T02:30:59.802Z,21.21
2023-04-02T02:32:05.254Z,21.21
2023-04-02T02:33:10.757Z,21.22
2023-04-02T02:34:16.114Z,21.27
2023-04-02T02:35:21.509Z,21.25
2023-04-02T02:36:26.969Z,21.22
2023-04-02T02:37:32.414Z,21.21
2023-04-02T02:38:37.815Z,21.24
2023-04-02T02:39:43.192Z,21.22
2023-04-02T02:40:48.604Z,21.23
2023-04-02T02:41:53.969Z,21.23
2023-04-02T02:42:59.373Z,21.2
2023-04-02T02:44:04.751Z,21.19
2023-04-02T02:45:10.139Z,21.21
2023-04-02T02:46:15.705Z,21.22
2023-04-02T02:47:21.184Z,21.21
2023-04-02T02:48:26.774Z,21.22
2023-04-02T02:49:32.179Z,21.16
2023-04-02T02:50:37.595Z,21.15
2023-04-02T02:51:43.011Z,21.16
2023-04-02T02:52:48.418Z,21.18
2023-04-02T02:53:53.778Z,21.15
2023-04-02T02:54:59.171Z,21.15
2023-04-02T02:56:04.615Z,21.13
2023-04-02T02:57:10.092Z,21.18
2023-04-02T02:58:15.582Z,21.14
2023-04-02T02:59:20.959Z,21.15
2023-04-02T03:00:26.418Z,21.19
2023-04-02T03:01:34.319Z,21.18
2023-04-02T03:02:39.886Z,21.16
2023-04-02T03:03:45.721Z,21.2
2023-04-02T03:04:52.104Z,21.22
2023-04-02T03:05:57.501Z,21.23
2023-04-02T03:07:02.871Z,21.24
2023-04-02T03:08:08.250Z,21.23
2023-04-02T03:09:13.622Z,21.21
2023-04-02T03:10:18.986Z,21.23
2023-04-02T03:11:24.385Z,21.22
2023-04-02T03:12:30.843Z,21.15
2023-04-02T03:13:36.305Z,21.17
2023-04-02T03:14:41.710Z,21.18
2023-04-02T03:15:47.127Z,21.16
2023-04-02T03:16:52.575Z,21.17
2023-04-02T03:17:58.023Z,21.18
2023-04-02T03:19:03.521Z,21.16
2023-04-02T03:20:08.904Z,21.18
2023-04-02T03:21:14.303Z,21.15
2023-04-02T03:22:19.686Z,21.13
2023-04-02T03:23:25.051Z,21.14
2023-04-02T03:24:30.424Z,21.17
2023-04-02T03:25:36.018Z,21.13
2023-04-02T03:26:41.747Z,21.15
2023-04-02T03:27:47.101Z,21.19
2023-04-02T03:28:52.460Z,21.17
2023-04-02T03:29:57.830Z,21.18
2023-04-02T03:31:03.268Z,21.16
2023-04-02T03:32:08.854Z,21.18
2023-04-02T03:33:14.218Z,21.15
2023-04-02T03:34:19.636Z,21.14
2023-04-02T03:35:25.013Z,21.14
2023-04-02T03:36:30.521Z,21.15
2023-04-02T03:37:35.914Z,21.15
2023-04-02T03:38:41.325Z,21.13
2023-04-02T03:39:46.706Z,21.12
2023-04-02T03:40:52.089Z,21.16
2023-04-02T03:41:57.491Z,21.19
2023-04-02T03:43:02.878Z,21.19
2023-04-02T03:44:08.266Z,21.15
2023-04-02T03:45:13.653Z,21.09
2023-04-02T03:46:19.041Z,21.12
2023-04-02T03:47:24.518Z,21.13
2023-04-02T03:48:29.982Z,21.08
2023-04-02T03:49:35.403Z,21.1
2023-04-02T03:50:40.795Z,21.11
2023-04-02T03:51:46.160Z,21.13
2023-04-02T03:52:51.521Z,21.1
2023-04-02T03:53:56.906Z,21.11
2023-04-02T03:55:02.295Z,21.07
2023-04-02T03:56:07.749Z,21.08
2023-04-02T03:57:13.160Z,21.11
2023-04-02T03:58:19.655Z,21.12
2023-04-02T03:59:25.042Z,21.1
2023-04-02T04:00:30.477Z,21.04
2023-04-02T04:01:35.958Z,21.03
2023-04-02T04:02:41.509Z,21
2023-04-02T04:03:47.066Z,21.05
2023-04-02T04:04:52.570Z,21.06
2023-04-02T04:05:57.985Z,21.01
2023-04-02T04:07:03.364Z,21.05
2023-04-02T04:08:08.764Z,21.04
2023-04-02T04:09:14.131Z,21.01
2023-04-02T04:10:19.499Z,21.01
2023-04-02T04:11:25.016Z,21.03
2023-04-02T04:12:30.663Z,21.02
2023-04-02T04:13:36.041Z,21.06
2023-04-02T04:14:42.764Z,21.04
2023-04-02T04:15:49.501Z,21.04
2023-04-02T04:16:54.947Z,21.05
2023-04-02T04:18:00.424Z,21.05
2023-04-02T04:19:06.026Z,21.06
2023-04-02T04:20:11.384Z,21.05
2023-04-02T04:21:16.814Z,21.06
2023-04-02T04:22:22.234Z,21.14
2023-04-02T04:23:27.588Z,21.21
2023-04-02T04:24:32.971Z,21.28
2023-04-02T04:25:38.316Z,21.37
2023-04-02T04:26:43.705Z,21.46
2023-04-02T04:27:49.108Z,21.57
2023-04-02T04:28:54.487Z,21.69
2023-04-02T04:29:59.932Z,21.8
2023-04-02T04:31:05.331Z,21.88
2023-04-02T04:32:10.742Z,21.96
2023-04-02T04:33:16.388Z,22.05
2023-04-02T04:34:21.785Z,22.12
2023-04-02T04:35:27.315Z,22.18
2023-04-02T04:36:32.784Z,22.23
2023-04-02T04:37:38.155Z,22.28
2023-04-02T04:38:46.173Z,22.29
2023-04-02T04:39:51.546Z,22.33
2023-04-02T04:40:56.928Z,22.37
2023-04-02T04:42:02.329Z,22.4
2023-04-02T04:43:07.696Z,22.43
2023-04-02T04:44:13.105Z,22.41
2023-04-02T04:45:18.685Z,22.44
2023-04-02T04:46:24.119Z,22.44
2023-04-02T04:47:29.832Z,22.5
2023-04-02T04:48:36.434Z,22.51
2023-04-02T04:49:41.938Z,22.52
2023-04-02T04:50:47.295Z,22.53
2023-04-02T04:51:52.658Z,22.53
2023-04-02T04:52:58.059Z,22.54
2023-04-02T04:54:03.414Z,22.53
2023-04-02T04:55:08.773Z,22.52
2023-04-02T04:56:19.073Z,22.51
2023-04-02T04:57:25.044Z,22.49
2023-04-02T04:58:30.577Z,22.5
2023-04-02T04:59:35.941Z,22.5
2023-04-02T05:00:41.329Z,22.47
2023-04-02T05:01:47.749Z,22.44
2023-04-02T05:02:53.460Z,22.44
2023-04-02T05:03:58.991Z,22.43
2023-04-02T05:05:04.468Z,22.4
2023-04-02T05:06:09.961Z,22.37
2023-04-02T05:07:15.348Z,22.36
2023-04-02T05:08:20.762Z,22.34
2023-04-02T05:09:26.120Z,22.32
2023-04-02T05:10:31.582Z,22.27
2023-04-02T05:11:37.224Z,22.25
2023-04-02T05:12:43.602Z,22.22
2023-04-02T05:13:48.959Z,22.21
2023-04-02T05:14:54.401Z,22.18
2023-04-02T05:16:01.265Z,22.15
2023-04-02T05:17:06.929Z,22.12
2023-04-02T05:18:12.294Z,22.1
2023-04-02T05:19:17.713Z,22.09
2023-04-02T05:20:23.078Z,22.06
2023-04-02T05:21:28.487Z,22.05
2023-04-02T05:22:33.860Z,22.04
2023-04-02T05:23:40.669Z,22.02
2023-04-02T05:24:46.056Z,21.99
2023-04-02T05:25:51.439Z,21.99
2023-04-02T05:26:56.828Z,21.97
2023-04-02T05:28:02.205Z,21.95
2023-04-02T05:29:07.658Z,21.92
2023-04-02T05:30:13.048Z,21.91
2023-04-02T05:31:18.442Z,21.92
2023-04-02T05:32:24.028Z,21.92
2023-04-02T05:33:29.505Z,21.91
2023-04-02T05:34:34.970Z,21.91
2023-04-02T05:35:40.318Z,21.89
2023-04-02T05:36:45.815Z,21.88
2023-04-02T05:37:51.277Z,21.88
2023-04-02T05:38:56.643Z,21.86
2023-04-02T05:40:02.031Z,21.84
2023-04-02T05:41:07.435Z,21.85
2023-04-02T05:42:12.812Z,21.83
2023-04-02T05:43:18.210Z,21.82
2023-04-02T05:44:23.587Z,21.8
2023-04-02T05:45:28.969Z,21.8
2023-04-02T05:46:34.362Z,21.78
2023-04-02T05:47:39.994Z,21.8
2023-04-02T05:48:45.562Z,21.79
2023-04-02T05:49:50.948Z,21.81
2023-04-02T05:50:56.324Z,21.8
2023-04-02T05:52:01.683Z,21.77
2023-04-02T05:53:07.104Z,21.78
2023-04-02T05:54:12.483Z,21.74
2023-04-02T05:55:17.907Z,21.73
2023-04-02T05:56:23.272Z,21.73
2023-04-02T05:57:42.006Z,21.73
2023-04-02T05:59:28.327Z,21.71
2023-04-02T06:00:33.720Z,21.71
2023-04-02T06:01:39.173Z,21.7
2023-04-02T06:02:44.685Z,21.72
2023-04-02T06:03:50.192Z,21.72
2023-04-02T06:04:55.750Z,21.73
2023-04-02T06:06:01.122Z,21.74
2023-04-02T06:07:06.580Z,21.73
2023-04-02T06:08:11.978Z,21.74
2023-04-02T06:09:17.358Z,21.74
2023-04-02T06:10:24.569Z,21.74
2023-04-02T06:11:30.203Z,21.74
2023-04-02T06:12:35.562Z,21.75
2023-04-02T06:13:41.030Z,21.72
2023-04-02T06:14:46.423Z,21.74
2023-04-02T06:15:51.796Z,21.73
2023-04-02T06:16:57.291Z,21.71
2023-04-02T06:18:03.048Z,21.74
2023-04-02T06:19:08.569Z,21.74
2023-04-02T06:20:13.934Z,21.72
2023-04-02T06:21:19.294Z,21.72
2023-04-02T06:22:24.680Z,21.71
2023-04-02T06:23:30.018Z,21.72
2023-04-02T06:24:35.519Z,21.7
2023-04-02T06:25:40.943Z,21.67
2023-04-02T06:26:46.426Z,21.66
2023-04-02T06:27:51.814Z,21.65
2023-04-02T06:28:57.173Z,21.65
2023-04-02T06:30:02.619Z,21.66
2023-04-02T06:31:08.041Z,21.66
2023-04-02T06:32:13.631Z,21.65
2023-04-02T06:33:19.013Z,21.63
2023-04-02T06:34:24.383Z,21.62
2023-04-02T06:35:29.845Z,21.62
2023-04-02T06:36:35.210Z,21.61
2023-04-02T06:37:40.634Z,21.62
2023-04-02T06:38:46.086Z,21.63
2023-04-02T06:39:51.453Z,21.64
2023-04-02T06:40:58.721Z,21.64
2023-04-02T06:42:04.332Z,21.64
2023-04-02T06:43:09.814Z,21.65
2023-04-02T06:44:15.167Z,21.63
2023-04-02T06:45:20.575Z,21.66
2023-04-02T06:46:26.012Z,21.65
2023-04-02T06:47:31.575Z,21.67
2023-04-02T06:48:37.076Z,21.7
2023-04-02T06:49:42.474Z,21.67
2023-04-02T06:50:47.859Z,21.65
2023-04-02T06:51:53.275Z,21.65
2023-04-02T06:52:58.673Z,21.66
2023-04-02T06:54:04.058Z,21.64
2023-04-02T06:55:09.435Z,21.61
2023-04-02T06:56:15.059Z,21.65
2023-04-02T06:57:20.485Z,21.64
2023-04-02T06:58:25.991Z,21.66
2023-04-02T06:59:31.353Z,21.72
2023-04-02T07:00:36.732Z,21.75
2023-04-02T07:01:42.135Z,21.8
2023-04-02T07:02:47.827Z,21.86
2023-04-02T07:03:53.339Z,21.91
2023-04-02T07:04:58.737Z,21.95
2023-04-02T07:06:04.425Z,21.98
2023-04-02T07:07:09.823Z,22.01
2023-04-02T07:08:17.631Z,22.07
2023-04-02T07:09:22.991Z,22.11
2023-04-02T07:10:28.426Z,22.14
2023-04-02T07:11:33.840Z,22.17
2023-04-02T07:12:39.216Z,22.19
2023-04-02T07:13:44.673Z,22.19
2023-04-02T07:14:50.006Z,22.19
2023-04-02T07:15:55.454Z,22.19
2023-04-02T07:17:01.821Z,22.19
2023-04-02T07:18:07.236Z,22.2
2023-04-02T07:19:12.871Z,22.2
2023-04-02T07:20:18.414Z,22.18
2023-04-02T07:21:23.800Z,22.19
2023-04-02T07:22:29.180Z,22.18
2023-04-02T07:23:34.560Z,22.18
2023-04-02T07:24:39.945Z,22.18
2023-04-02T07:25:45.334Z,22.18
2023-04-02T07:26:50.733Z,22.17
2023-04-02T07:27:56.088Z,22.18
2023-04-02T07:29:01.495Z,22.21
2023-04-02T07:30:06.996Z,22.24
2023-04-02T07:31:12.465Z,22.31
2023-04-02T07:32:17.927Z,22.26
2023-04-02T07:33:23.334Z,22.2
2023-04-02T07:34:28.694Z,22.17
2023-04-02T07:35:34.397Z,22.12
2023-04-02T07:36:40.690Z,22.1
2023-04-02T07:37:47.051Z,22.06
2023-04-02T07:38:52.460Z,22.05
2023-04-02T07:39:57.848Z,22.04
2023-04-02T07:41:03.235Z,22.02
2023-04-02T07:42:11.184Z,22.01
2023-04-02T07:43:16.632Z,21.97
2023-04-02T07:44:21.996Z,21.93
2023-04-02T07:45:27.432Z,21.94
2023-04-02T07:46:32.832Z,21.93
2023-04-02T07:47:38.340Z,21.91
2023-04-02T07:48:43.823Z,21.91
2023-04-02T07:49:49.190Z,21.89
2023-04-02T07:50:54.649Z,21.88
2023-04-02T07:52:00.013Z,21.85
2023-04-02T07:53:05.428Z,21.82
2023-04-02T07:54:10.813Z,21.78
2023-04-02T07:55:16.193Z,21.78
2023-04-02T07:56:21.568Z,21.76
2023-04-02T07:57:26.993Z,21.73
2023-04-02T07:58:32.601Z,21.73
2023-04-02T07:59:38.005Z,21.7
2023-04-02T08:00:43.375Z,21.7
2023-04-02T08:01:48.747Z,21.7
2023-04-02T08:02:54.557Z,21.72
2023-04-02T08:04:00.202Z,21.77
2023-04-02T08:05:05.888Z,21.75
2023-04-02T08:06:11.268Z,21.77
2023-04-02T08:07:16.619Z,21.77
2023-04-02T08:08:21.971Z,21.75
2023-04-02T08:09:29.684Z,21.74
2023-04-02T08:10:35.138Z,21.76
2023-04-02T08:11:40.487Z,21.76
2023-04-02T08:12:45.934Z,21.73
2023-04-02T08:13:51.351Z,21.69
2023-04-02T08:14:56.715Z,21.66
2023-04-02T08:16:02.099Z,21.65
2023-04-02T08:17:07.515Z,21.62
2023-04-02T08:18:12.911Z,21.59
2023-04-02T08:19:18.311Z,21.57
2023-04-02T08:20:23.672Z,21.56
2023-04-02T08:21:29.091Z,21.52
2023-04-02T08:22:34.501Z,21.56
2023-04-02T08:23:39.938Z,21.56
2023-04-02T08:24:45.301Z,21.53
2023-04-02T08:25:50.692Z,21.52
2023-04-02T08:26:56.045Z,21.52
2023-04-02T08:28:01.427Z,21.5
2023-04-02T08:29:06.802Z,21.48
2023-04-02T08:30:12.237Z,21.48
2023-04-02T08:31:17.688Z,21.48
2023-04-02T08:32:23.160Z,21.5
2023-04-02T08:33:28.614Z,21.52
2023-04-02T08:34:34.103Z,21.52
2023-04-02T08:35:39.705Z,21.53
2023-04-02T08:36:45.421Z,21.56
2023-04-02T08:37:50.792Z,21.56
2023-04-02T08:38:56.149Z,21.56
2023-04-02T08:40:01.522Z,21.55
2023-04-02T08:41:06.939Z,21.58
2023-04-02T08:42:12.315Z,21.59
2023-04-02T08:43:17.718Z,21.66
2023-04-02T08:44:25.026Z,21.74
2023-04-02T08:45:30.386Z,21.78
2023-04-02T08:46:35.806Z,21.85
2023-04-02T08:47:41.386Z,21.91
2023-04-02T08:48:46.897Z,21.98
2023-04-02T08:49:52.284Z,22.06
2023-04-02T08:50:57.641Z,22.12
2023-04-02T08:52:02.989Z,22.18
2023-04-02T08:53:08.379Z,22.24
2023-04-02T08:54:13.742Z,22.28
2023-04-02T08:55:19.108Z,22.34
2023-04-02T08:56:24.481Z,22.34
2023-04-02T08:57:29.880Z,22.34
2023-04-02T08:58:35.405Z,22.34
2023-04-02T08:59:40.807Z,22.38
2023-04-02T09:00:46.244Z,22.41
2023-04-02T09:01:51.694Z,22.43
2023-04-02T09:02:57.313Z,22.45
2023-04-02T09:04:02.819Z,22.46
2023-04-02T09:05:08.292Z,22.47
2023-04-02T09:06:15.338Z,22.46
2023-04-02T09:07:21.453Z,22.46
2023-04-02T09:08:26.822Z,22.47
2023-04-02T09:09:32.217Z,22.47
2023-04-02T09:10:37.618Z,22.51
2023-04-02T09:11:43.259Z,22.51
2023-04-02T09:12:48.645Z,22.52
2023-04-02T09:13:54.046Z,22.52
2023-04-02T09:14:59.443Z,22.52
2023-04-02T09:16:04.842Z,22.53
2023-04-02T09:17:10.406Z,22.53
2023-04-02T09:18:15.798Z,22.53
2023-04-02T09:19:21.304Z,22.54
2023-04-02T09:20:26.709Z,22.56
2023-04-02T09:21:32.242Z,22.54
2023-04-02T09:22:37.595Z,22.55
2023-04-02T09:23:42.971Z,22.56
2023-04-02T09:24:48.339Z,22.58
2023-04-02T09:26:03.337Z,22.58
2023-04-02T09:27:09.551Z,22.61
2023-04-02T09:28:14.911Z,22.65
2023-04-02T09:29:20.283Z,22.61
2023-04-02T09:30:25.664Z,22.64
2023-04-02T09:31:31.074Z,22.61
2023-04-02T09:32:39.086Z,22.57
2023-04-02T09:33:44.667Z,22.58
2023-04-02T09:34:50.190Z,22.62
2023-04-02T09:35:55.556Z,22.6
2023-04-02T09:37:00.998Z,22.62
2023-04-02T09:38:06.389Z,22.6
2023-04-02T09:39:11.803Z,22.56
2023-04-02T09:40:17.259Z,22.56
2023-04-02T09:41:22.663Z,22.58
2023-04-02T09:42:28.058Z,22.56
2023-04-02T09:43:33.457Z,22.54
2023-04-02T09:44:38.866Z,22.52
2023-04-02T09:45:44.243Z,22.51
2023-04-02T09:46:49.634Z,22.51
2023-04-02T09:47:55.205Z,22.53
2023-04-02T09:49:00.865Z,22.53
2023-04-02T09:50:06.274Z,22.5
2023-04-02T09:51:11.655Z,22.46
2023-04-02T09:52:17.097Z,22.46
2023-04-02T09:53:22.502Z,22.45
2023-04-02T09:54:27.978Z,22.47
2023-04-02T09:55:33.693Z,22.47
2023-04-02T09:56:39.843Z,22.48
2023-04-02T09:57:45.244Z,22.51
2023-04-02T09:58:50.666Z,22.52
2023-04-02T09:59:56.023Z,22.52
2023-04-02T10:01:01.414Z,22.5
2023-04-02T10:02:06.880Z,22.51
2023-04-02T10:03:12.247Z,22.49
2023-04-02T10:04:17.682Z,22.53
2023-04-02T10:05:30.014Z,22.52
2023-04-02T10:06:45.888Z,22.5
2023-04-02T10:07:51.258Z,22.48
2023-04-02T10:08:56.618Z,22.47
2023-04-02T10:10:02.102Z,22.49
2023-04-02T10:11:07.451Z,22.5
2023-04-02T10:12:12.810Z,22.5
2023-04-02T10:13:18.183Z,22.51
2023-04-02T10:14:23.588Z,22.51
2023-04-02T10:15:29.059Z,22.52
2023-04-02T10:16:34.481Z,22.53
2023-04-02T10:17:40.004Z,22.56
2023-04-02T10:18:45.518Z,22.57
2023-04-02T10:19:50.920Z,22.57
2023-04-02T10:20:56.331Z,22.59
2023-04-02T10:22:01.690Z,22.61
2023-04-02T10:23:07.079Z,22.62
2023-04-02T10:24:12.604Z,22.65
2023-04-02T10:25:17.963Z,22.69
2023-04-02T10:26:23.342Z,22.69
2023-04-02T10:27:28.787Z,22.69
2023-04-02T10:28:34.147Z,22.69
2023-04-02T10:29:39.510Z,22.7
2023-04-02T10:30:44.928Z,22.71
2023-04-02T10:31:50.484Z,22.72
2023-04-02T10:32:55.965Z,22.72
2023-04-02T10:34:01.471Z,22.67
2023-04-02T10:35:06.849Z,22.66
2023-04-02T10:36:12.298Z,22.61
2023-04-02T10:37:17.735Z,22.62
2023-04-02T10:38:23.148Z,22.59
2023-04-02T10:39:28.518Z,22.57
2023-04-02T10:40:33.875Z,22.54
2023-04-02T10:41:39.279Z,22.52
2023-04-02T10:42:44.679Z,22.51
2023-04-02T10:43:50.078Z,22.52
2023-04-02T10:44:55.640Z,22.49
2023-04-02T10:46:01.093Z,22.48
2023-04-02T10:47:06.635Z,22.48
2023-04-02T10:48:12.129Z,22.46
2023-04-02T10:49:17.596Z,22.45
2023-04-02T10:50:23.075Z,22.45
2023-04-02T10:51:28.454Z,22.44
2023-04-02T10:52:33.953Z,22.45
2023-04-02T10:53:39.391Z,22.47
2023-04-02T10:54:44.811Z,22.47
2023-04-02T10:55:50.162Z,22.47
2023-04-02T10:56:55.632Z,22.52
2023-04-02T10:58:01.086Z,22.54
2023-04-02T10:59:06.468Z,22.58
2023-04-02T11:00:11.933Z,22.57
2023-04-02T11:01:17.426Z,22.57
2023-04-02T11:02:22.947Z,22.56
2023-04-02T11:03:28.575Z,22.57
2023-04-02T11:04:34.432Z,22.55
2023-04-02T11:05:39.837Z,22.57
2023-04-02T11:06:45.235Z,22.55
2023-04-02T11:07:50.608Z,22.58
2023-04-02T11:08:55.952Z,22.57
2023-04-02T11:10:01.351Z,22.54
2023-04-02T11:11:06.756Z,22.53
2023-04-02T11:12:12.162Z,22.54
2023-04-02T11:13:17.565Z,22.54
2023-04-02T11:14:22.969Z,22.53
2023-04-02T11:15:28.330Z,22.53
2023-04-02T11:16:34.656Z,22.57
2023-04-02T11:17:47.580Z,22.57
2023-04-02T11:18:53.054Z,22.55
2023-04-02T11:19:58.435Z,22.56
2023-04-02T11:21:03.816Z,22.53
2023-04-02T11:22:09.235Z,22.53
2023-04-02T11:23:17.623Z,22.55
2023-04-02T11:24:22.998Z,22.54
2023-04-02T11:25:28.554Z,22.54
2023-04-02T11:26:33.968Z,22.53
2023-04-02T11:27:39.389Z,22.53
2023-04-02T11:28:44.760Z,22.5
2023-04-02T11:29:50.336Z,22.56
2023-04-02T11:30:55.751Z,22.56
2023-04-02T11:32:01.449Z,22.54
2023-04-02T11:33:06.980Z,22.56
2023-04-02T11:34:12.460Z,22.53
2023-04-02T11:35:17.839Z,22.54
2023-04-02T11:36:23.256Z,22.54
2023-04-02T11:37:28.724Z,22.55
2023-04-02T11:38:34.096Z,22.54
2023-04-02T11:39:39.464Z,22.54
2023-04-02T11:40:44.824Z,22.56
2023-04-02T11:41:50.208Z,22.57
2023-04-02T11:42:55.575Z,22.56
2023-04-02T11:44:00.966Z,22.57
2023-04-02T11:45:06.356Z,22.59
2023-04-02T11:46:11.757Z,22.58
2023-04-02T11:47:17.218Z,22.56
2023-04-02T11:48:23.367Z,22.57
2023-04-02T11:49:28.961Z,22.58
2023-04-02T11:50:34.705Z,22.6
2023-04-02T11:51:40.453Z,22.6
2023-04-02T11:52:46.135Z,22.6
2023-04-02T11:53:51.516Z,22.62
2023-04-02T11:54:56.976Z,22.62
2023-04-02T11:56:02.357Z,22.64
2023-04-02T11:57:07.805Z,22.6
2023-04-02T11:58:13.364Z,22.61
2023-04-02T11:59:18.733Z,22.63
2023-04-02T12:00:24.099Z,22.58
2023-04-02T12:01:29.506Z,22.61
2023-04-02T12:02:34.955Z,22.63
2023-04-02T12:03:40.727Z,22.64
2023-04-02T12:04:46.252Z,22.65
2023-04-02T12:05:51.767Z,22.65
2023-04-02T12:06:57.147Z,22.66
2023-04-02T12:08:02.570Z,22.63
2023-04-02T12:09:08.008Z,22.65
2023-04-02T12:10:13.370Z,22.63
2023-04-02T12:11:18.751Z,22.64
2023-04-02T12:12:24.116Z,22.65
2023-04-02T12:13:29.756Z,22.62
2023-04-02T12:14:35.156Z,22.64
2023-04-02T12:15:40.549Z,22.65
2023-04-02T12:16:45.997Z,22.65
2023-04-02T12:17:51.577Z,22.63
2023-04-02T12:18:57.116Z,22.64
2023-04-02T12:20:04.406Z,22.6
2023-04-02T12:21:11.054Z,22.64
2023-04-02T12:22:16.445Z,22.66
2023-04-02T12:23:21.852Z,22.66
2023-04-02T12:24:27.244Z,22.72
2023-04-02T12:25:32.722Z,22.71
2023-04-02T12:26:38.392Z,22.65
2023-04-02T12:27:43.857Z,22.57
2023-04-02T12:28:49.229Z,22.56
2023-04-02T12:29:54.640Z,22.53
2023-04-02T12:31:00.094Z,22.51
2023-04-02T12:32:05.706Z,22.49
2023-04-02T12:33:11.138Z,22.5
2023-04-02T12:34:16.712Z,22.48
2023-04-02T12:35:22.129Z,22.48
2023-04-02T12:36:29.802Z,22.52
2023-04-02T12:37:35.171Z,22.55
2023-04-02T12:38:40.537Z,22.55
2023-04-02T12:39:45.900Z,22.58
2023-04-02T12:40:51.276Z,22.66
2023-04-02T12:41:56.708Z,22.69
2023-04-02T12:43:02.081Z,22.73
2023-04-02T12:44:07.468Z,22.74
2023-04-02T12:45:12.849Z,22.77
2023-04-02T12:46:18.289Z,22.8
2023-04-02T12:47:23.772Z,22.85
2023-04-02T12:48:29.212Z,22.87
2023-04-02T12:49:34.599Z,22.9
2023-04-02T12:50:39.984Z,22.9
2023-04-02T12:51:45.399Z,22.95
2023-04-02T12:52:50.756Z,22.93
2023-04-02T12:53:56.142Z,22.95
2023-04-02T12:55:01.572Z,22.97
2023-04-02T12:56:06.985Z,22.96
2023-04-02T12:57:12.517Z,22.95
2023-04-02T12:58:18.016Z,22.93
2023-04-02T12:59:23.365Z,22.93
2023-04-02T13:00:28.744Z,22.92
2023-04-02T13:01:34.126Z,22.92
2023-04-02T13:02:39.661Z,22.91
2023-04-02T13:03:45.184Z,22.91
2023-04-02T13:04:50.646Z,22.9
2023-04-02T13:05:56.045Z,22.89
2023-04-02T13:07:01.454Z,22.87
2023-04-02T13:08:06.837Z,22.85
2023-04-02T13:09:12.239Z,22.84
2023-04-02T13:10:17.622Z,22.8
2023-04-02T13:11:23.003Z,22.81
2023-04-02T13:12:28.356Z,22.8
2023-04-02T13:13:33.991Z,22.82
2023-04-02T13:14:39.464Z,22.83
2023-04-02T13:15:44.970Z,22.87
2023-04-02T13:16:50.489Z,22.9
2023-04-02T13:17:55.872Z,22.91
2023-04-02T13:19:02.398Z,22.92
2023-04-02T13:20:08.850Z,22.97
2023-04-02T13:21:14.270Z,22.99
2023-04-02T13:22:19.694Z,23.01
2023-04-02T13:23:25.199Z,23
2023-04-02T13:24:30.598Z,22.99
2023-04-02T13:25:36.025Z,22.99
2023-04-02T13:26:41.447Z,23
2023-04-02T13:27:46.831Z,23.01
2023-04-02T13:28:52.190Z,23.02
2023-04-02T13:29:57.806Z,23.03
2023-04-02T13:31:03.260Z,23.02
2023-04-02T13:32:08.735Z,23.02
2023-04-02T13:33:14.111Z,23.02
2023-04-02T13:34:19.538Z,23.02
2023-04-02T13:35:25.255Z,23.02
2023-04-02T13:36:31.853Z,23.02
2023-04-02T13:37:37.248Z,23.03
2023-04-02T13:38:42.696Z,23.01
2023-04-02T13:39:50.358Z,23
2023-04-02T13:40:55.729Z,22.99
2023-04-02T13:42:01.113Z,23.03
2023-04-02T13:43:06.591Z,23.02
2023-04-02T13:44:11.988Z,23.02
2023-04-02T13:45:17.400Z,23.04
2023-04-02T13:46:23.813Z,23.03
2023-04-02T13:47:29.256Z,23.04
2023-04-02T13:48:34.758Z,23.03
2023-04-02T13:49:40.127Z,23.04
2023-04-02T13:50:45.498Z,23.03
2023-04-02T13:51:51.155Z,23.03
2023-04-02T13:52:56.535Z,23.03
2023-04-02T13:54:01.900Z,23.03
2023-04-02T13:55:07.258Z,23.02
2023-04-02T13:56:12.636Z,23.05
2023-04-02T13:57:18.101Z,23.04
2023-04-02T13:58:23.653Z,23.06
2023-04-02T13:59:29.317Z,23.04
2023-04-02T14:00:34.850Z,23.04
2023-04-02T14:01:40.890Z,23.03
2023-04-02T14:02:46.497Z,23.04
2023-04-02T14:03:52.044Z,23.04
2023-04-02T14:04:57.579Z,23.06
2023-04-02T14:06:03.150Z,23.07
2023-04-02T14:07:08.534Z,23.07
2023-04-02T14:08:13.903Z,23.06